Pagrindinis puslapis
METAR-TAF:

METAR-TAF

Oro uostai :

Liuksemburgas, Liuksemburgas

platuma: 49-37N, ilguma: 006-13E, Aukštis: 376 m

Dabartinis oras

Ataskaita buvo paskelbta 37 minutes, ne 00:20 UTC
Vėjas 18 kt iš Šiaurės/Šiaurės Rytų
Temperatūra 5°C
Drėgmė 70%
Slėgis 1022 hPa
Matomumas 10 km arba daugiau

METAR: ELLX 290020Z AUTO 02018KT 9999 SCT092/// 05/M00 Q1022 NOSIG

Laikas: 01:57 (00:57 UTC)

Prognozė

Ataskaita buvo paskelbta 1 valandą ir 57 minutes, ne 23:00 UTC
Prognozė galioja nuo 29 metu 00 UTC su 30 metu 06 UTC
Vėjas 15 kt iš Šiaurės/Šiaurės Rytų
Matomumas 10 km arba daugiau
nėra debesų žemiau 1500 m ir nėra kamuolinių lietaus debesų
Laikinai
nuo 29 metu 10 UTC su 29 metu 21 UTC
Vėjas 18 kt iš Šiaurės/Šiaurės Rytų su gūsio iki 35 kt
Išsisklaidę debesys ne aukštis 1500 ft, aukštai iškilę kamuoliniai debesys.
lietus, sniegas, lietus, ledo ar sniego kruopos

TAF: ELLX 282300Z 2900/3006 02015KT CAVOK TEMPO 2910/2921 02018G35KT SHRASN -SHRAGS SCT015TCU

Orai ataskaitas ir orų prognozės (METAR, TAF).

turimą stotys yra geltonos ir raudonos taškus žemėlapyje.

Perkelti pele per norėdami pamatyti stoties vardą.

Tada spustelėkite, norėdami matyti oro stebėjimo ir prognozės.

Norėdami pakeisti žemėlapį: spustelėkite ant žalios mygtukų su juodo kryžiaus žemyn,; žalią mygtuką su brūkšneliu, jei norite nutolinti; arba žalių rodyklių gretimoms žemėlapius.


METAR-TAF: